sensor_id;sensor_type;location;lat;lon;timestamp;P1;durP1;ratioP1;P2;durP2;ratioP2
38252;SDS011;24785;52.372;20.672;2023-03-09T00:04:13;58.50;;;21.88;;
38252;SDS011;24785;52.372;20.672;2023-03-09T00:14:15;57.28;;;21.63;;
38252;SDS011;24785;52.372;20.672;2023-03-09T00:24:19;53.35;;;20.85;;
38252;SDS011;24785;52.372;20.672;2023-03-09T00:34:25;61.80;;;22.00;;
38252;SDS011;24785;52.372;20.672;2023-03-09T00:44:25;63.22;;;23.73;;
38252;SDS011;24785;52.372;20.672;2023-03-09T00:54:26;55.33;;;21.65;;
38252;SDS011;24785;52.372;20.672;2023-03-09T01:14:29;61.60;;;22.45;;
38252;SDS011;24785;52.372;20.672;2023-03-09T01:24:30;59.93;;;22.30;;
38252;SDS011;24785;52.372;20.672;2023-03-09T01:34:31;37.27;;;15.30;;
38252;SDS011;24785;52.372;20.672;2023-03-09T01:44:32;37.40;;;15.80;;
38252;SDS011;24785;52.372;20.672;2023-03-09T01:54:44;30.13;;;13.37;;
38252;SDS011;24785;52.372;20.672;2023-03-09T02:04:50;31.85;;;11.15;;
38252;SDS011;24785;52.372;20.672;2023-03-09T02:14:58;26.73;;;10.40;;
38252;SDS011;24785;52.372;20.672;2023-03-09T02:25:02;23.08;;;9.60;;
38252;SDS011;24785;52.372;20.672;2023-03-09T02:35:06;17.17;;;8.02;;
38252;SDS011;24785;52.372;20.672;2023-03-09T02:45:10;19.92;;;7.95;;
38252;SDS011;24785;52.372;20.672;2023-03-09T02:55:15;17.90;;;7.60;;
38252;SDS011;24785;52.372;20.672;2023-03-09T03:05:16;14.67;;;7.50;;
38252;SDS011;24785;52.372;20.672;2023-03-09T03:15:17;15.80;;;7.10;;
38252;SDS011;24785;52.372;20.672;2023-03-09T03:25:18;15.45;;;7.05;;
38252;SDS011;24785;52.372;20.672;2023-03-09T03:35:19;19.25;;;7.38;;
38252;SDS011;24785;52.372;20.672;2023-03-09T03:45:20;16.87;;;7.90;;
38252;SDS011;24785;52.372;20.672;2023-03-09T03:55:21;15.53;;;7.53;;
38252;SDS011;24785;52.372;20.672;2023-03-09T04:05:22;21.13;;;9.00;;
38252;SDS011;24785;52.372;20.672;2023-03-09T04:15:23;17.43;;;7.10;;
38252;SDS011;24785;52.372;20.672;2023-03-09T04:25:24;21.17;;;8.80;;
38252;SDS011;24785;52.372;20.672;2023-03-09T04:35:25;20.63;;;8.00;;
38252;SDS011;24785;52.372;20.672;2023-03-09T04:45:26;15.37;;;7.13;;
38252;SDS011;24785;52.372;20.672;2023-03-09T04:55:27;19.87;;;8.03;;
38252;SDS011;24785;52.372;20.672;2023-03-09T05:05:28;18.63;;;8.03;;
38252;SDS011;24785;52.372;20.672;2023-03-09T05:15:28;20.20;;;9.27;;
38252;SDS011;24785;52.372;20.672;2023-03-09T05:25:30;27.63;;;10.00;;
38252;SDS011;24785;52.372;20.672;2023-03-09T05:35:31;28.13;;;12.73;;
38252;SDS011;24785;52.372;20.672;2023-03-09T05:45:32;26.90;;;10.23;;
38252;SDS011;24785;52.372;20.672;2023-03-09T05:55:33;24.35;;;10.05;;
38252;SDS011;24785;52.372;20.672;2023-03-09T06:05:34;24.53;;;10.67;;
38252;SDS011;24785;52.372;20.672;2023-03-09T06:15:36;23.37;;;9.47;;
38252;SDS011;24785;52.372;20.672;2023-03-09T06:25:38;29.85;;;13.02;;
38252;SDS011;24785;52.372;20.672;2023-03-09T06:35:39;24.37;;;11.90;;
38252;SDS011;24785;52.372;20.672;2023-03-09T06:45:43;22.60;;;11.77;;
38252;SDS011;24785;52.372;20.672;2023-03-09T06:55:45;24.30;;;10.50;;
38252;SDS011;24785;52.372;20.672;2023-03-09T07:05:46;24.63;;;9.45;;
38252;SDS011;24785;52.372;20.672;2023-03-09T07:15:47;20.25;;;9.88;;
38252;SDS011;24785;52.372;20.672;2023-03-09T07:25:48;30.80;;;11.88;;
38252;SDS011;24785;52.372;20.672;2023-03-09T07:35:49;20.50;;;9.60;;
38252;SDS011;24785;52.372;20.672;2023-03-09T07:45:49;24.60;;;11.00;;
38252;SDS011;24785;52.372;20.672;2023-03-09T07:55:54;26.77;;;9.95;;
38252;SDS011;24785;52.372;20.672;2023-03-09T08:05:56;25.27;;;11.65;;
38252;SDS011;24785;52.372;20.672;2023-03-09T08:15:59;24.90;;;10.48;;
38252;SDS011;24785;52.372;20.672;2023-03-09T08:26:02;24.90;;;8.52;;
38252;SDS011;24785;52.372;20.672;2023-03-09T08:36:12;20.80;;;10.03;;
38252;SDS011;24785;52.372;20.672;2023-03-09T08:46:18;44.53;;;17.50;;
38252;SDS011;24785;52.372;20.672;2023-03-09T08:56:19;29.88;;;11.05;;
38252;SDS011;24785;52.372;20.672;2023-03-09T09:06:20;18.80;;;9.48;;
38252;SDS011;24785;52.372;20.672;2023-03-09T09:16:21;22.13;;;10.02;;
38252;SDS011;24785;52.372;20.672;2023-03-09T09:26:22;15.40;;;7.85;;
38252;SDS011;24785;52.372;20.672;2023-03-09T09:36:23;16.20;;;7.27;;
38252;SDS011;24785;52.372;20.672;2023-03-09T09:46:25;14.02;;;6.93;;
38252;SDS011;24785;52.372;20.672;2023-03-09T09:56:37;12.23;;;6.50;;
38252;SDS011;24785;52.372;20.672;2023-03-09T10:06:47;13.55;;;6.95;;
38252;SDS011;24785;52.372;20.672;2023-03-09T10:37:35;35.20;;;12.90;;
38252;SDS011;24785;52.372;20.672;2023-03-09T10:47:51;11.77;;;4.68;;
38252;SDS011;24785;52.372;20.672;2023-03-09T10:57:53;22.05;;;9.52;;
38252;SDS011;24785;52.372;20.672;2023-03-09T11:07:56;13.82;;;6.03;;
38252;SDS011;24785;52.372;20.672;2023-03-09T11:18:00;54.67;;;16.63;;
38252;SDS011;24785;52.372;20.672;2023-03-09T11:28:11;19.10;;;7.68;;
38252;SDS011;24785;52.372;20.672;2023-03-09T11:38:13;45.50;;;16.63;;
38252;SDS011;24785;52.372;20.672;2023-03-09T11:48:18;45.47;;;13.17;;
38252;SDS011;24785;52.372;20.672;2023-03-09T11:58:26;40.20;;;11.13;;
38252;SDS011;24785;52.372;20.672;2023-03-09T12:08:38;59.33;;;11.87;;
38252;SDS011;24785;52.372;20.672;2023-03-09T12:18:44;57.92;;;12.70;;
38252;SDS011;24785;52.372;20.672;2023-03-09T12:49:25;15.70;;;7.10;;
38252;SDS011;24785;52.372;20.672;2023-03-09T12:59:29;8.57;;;4.05;;
38252;SDS011;24785;52.372;20.672;2023-03-09T13:09:40;12.75;;;5.32;;
38252;SDS011;24785;52.372;20.672;2023-03-09T13:19:50;11.93;;;5.30;;
38252;SDS011;24785;52.372;20.672;2023-03-09T13:50:20;16.98;;;6.47;;
38252;SDS011;24785;52.372;20.672;2023-03-09T14:00:24;28.70;;;9.93;;
38252;SDS011;24785;52.372;20.672;2023-03-09T14:20:39;34.00;;;14.25;;
38252;SDS011;24785;52.372;20.672;2023-03-09T14:30:41;58.22;;;19.70;;
38252;SDS011;24785;52.372;20.672;2023-03-09T14:40:42;75.03;;;32.13;;
38252;SDS011;24785;52.372;20.672;2023-03-09T14:50:43;87.43;;;26.85;;
38252;SDS011;24785;52.372;20.672;2023-03-09T15:00:46;158.75;;;51.22;;
38252;SDS011;24785;52.372;20.672;2023-03-09T15:10:47;173.02;;;53.20;;
38252;SDS011;24785;52.372;20.672;2023-03-09T15:20:47;346.25;;;98.00;;
38252;SDS011;24785;52.372;20.672;2023-03-09T15:30:48;85.25;;;27.48;;
38252;SDS011;24785;52.372;20.672;2023-03-09T15:40:49;347.42;;;89.38;;
38252;SDS011;24785;52.372;20.672;2023-03-09T15:50:50;374.27;;;111.70;;
38252;SDS011;24785;52.372;20.672;2023-03-09T16:00:58;329.67;;;83.53;;
38252;SDS011;24785;52.372;20.672;2023-03-09T16:11:00;131.50;;;35.63;;
38252;SDS011;24785;52.372;20.672;2023-03-09T16:21:01;85.70;;;34.15;;
38252;SDS011;24785;52.372;20.672;2023-03-09T16:31:02;182.00;;;68.67;;
38252;SDS011;24785;52.372;20.672;2023-03-09T16:41:07;36.75;;;17.10;;
38252;SDS011;24785;52.372;20.672;2023-03-09T16:51:09;18.33;;;8.02;;
38252;SDS011;24785;52.372;20.672;2023-03-09T17:01:15;18.65;;;7.13;;
38252;SDS011;24785;52.372;20.672;2023-03-09T17:11:17;13.18;;;5.57;;
38252;SDS011;24785;52.372;20.672;2023-03-09T17:21:19;23.70;;;9.77;;
38252;SDS011;24785;52.372;20.672;2023-03-09T17:31:20;68.65;;;26.05;;
38252;SDS011;24785;52.372;20.672;2023-03-09T17:41:21;17.30;;;6.65;;
38252;SDS011;24785;52.372;20.672;2023-03-09T17:51:23;18.40;;;7.47;;
38252;SDS011;24785;52.372;20.672;2023-03-09T18:01:25;18.52;;;6.97;;
38252;SDS011;24785;52.372;20.672;2023-03-09T18:11:29;18.63;;;7.35;;
38252;SDS011;24785;52.372;20.672;2023-03-09T18:21:32;148.75;;;46.08;;
38252;SDS011;24785;52.372;20.672;2023-03-09T18:31:33;93.10;;;35.95;;
38252;SDS011;24785;52.372;20.672;2023-03-09T18:41:34;104.90;;;33.88;;
38252;SDS011;24785;52.372;20.672;2023-03-09T18:51:35;104.88;;;32.25;;
38252;SDS011;24785;52.372;20.672;2023-03-09T19:01:36;38.80;;;15.50;;
38252;SDS011;24785;52.372;20.672;2023-03-09T19:11:37;139.50;;;45.55;;
38252;SDS011;24785;52.372;20.672;2023-03-09T19:21:40;45.67;;;17.23;;
38252;SDS011;24785;52.372;20.672;2023-03-09T19:31:41;21.58;;;8.43;;
38252;SDS011;24785;52.372;20.672;2023-03-09T19:41:42;15.05;;;5.50;;
38252;SDS011;24785;52.372;20.672;2023-03-09T19:51:43;11.50;;;5.40;;
38252;SDS011;24785;52.372;20.672;2023-03-09T20:01:45;13.05;;;5.45;;
38252;SDS011;24785;52.372;20.672;2023-03-09T20:11:47;10.35;;;4.15;;
38252;SDS011;24785;52.372;20.672;2023-03-09T20:21:49;9.13;;;4.32;;
38252;SDS011;24785;52.372;20.672;2023-03-09T20:31:52;10.00;;;4.25;;
38252;SDS011;24785;52.372;20.672;2023-03-09T20:41:54;12.43;;;6.15;;
38252;SDS011;24785;52.372;20.672;2023-03-09T20:51:55;11.65;;;5.65;;
38252;SDS011;24785;52.372;20.672;2023-03-09T21:01:56;12.50;;;5.07;;
38252;SDS011;24785;52.372;20.672;2023-03-09T21:11:57;14.13;;;5.40;;
38252;SDS011;24785;52.372;20.672;2023-03-09T21:21:58;15.70;;;5.70;;
38252;SDS011;24785;52.372;20.672;2023-03-09T21:31:59;17.95;;;7.03;;
38252;SDS011;24785;52.372;20.672;2023-03-09T21:42:00;18.63;;;6.10;;
38252;SDS011;24785;52.372;20.672;2023-03-09T21:52:01;12.77;;;4.77;;
38252;SDS011;24785;52.372;20.672;2023-03-09T22:02:04;12.73;;;4.97;;
38252;SDS011;24785;52.372;20.672;2023-03-09T22:22:07;15.57;;;6.03;;
38252;SDS011;24785;52.372;20.672;2023-03-09T22:32:08;13.10;;;5.22;;
38252;SDS011;24785;52.372;20.672;2023-03-09T22:42:09;13.67;;;5.63;;
38252;SDS011;24785;52.372;20.672;2023-03-09T22:52:10;14.85;;;6.75;;
38252;SDS011;24785;52.372;20.672;2023-03-09T23:02:12;10.87;;;4.67;;
38252;SDS011;24785;52.372;20.672;2023-03-09T23:12:13;11.77;;;4.70;;
38252;SDS011;24785;52.372;20.672;2023-03-09T23:22:14;12.68;;;5.00;;
38252;SDS011;24785;52.372;20.672;2023-03-09T23:32:15;9.90;;;3.72;;
38252;SDS011;24785;52.372;20.672;2023-03-09T23:42:16;10.50;;;4.13;;
38252;SDS011;24785;52.372;20.672;2023-03-09T23:52:16;32.85;;;10.73;;
